»·PEaware :: N74KW L77-L88

N74KW :: L77-L88

FLIGHT INFORMATION

Flight Status: Arrived
Operator: Privately registered:
United States
More flights under this callsign
Pilot: Charles C. (26995)
Aircraft: MCDONNELL-DOUGLAS SKYTRAIN C-47
(DC3)
More flights by this aircraft type
Origin: L77 Chiriaco Summit
United States
Destination: L88 New Cuyama
United States
More flights between these airports :: More routes between these airports
Route: L22 PMD LOPES
File this flight plan on PilotEdge
Remarks:
Altitude:
(Current/Filed)
8,500ft
Speed:
(Current/Filed)
150kts
Departed: 19-Aug-20 08:42 AM
Arrived: 19-Aug-20 10:11 AM
Distance/Time
Traveled:
212nm/1:29
Distance/Time
To Go:
Arrived

Flight Plot

Page will automatically refresh every two minutes.

Flight plan parsing failed; only flown route is shown


Map Options




Map Legend


Flown Route
Filed Route
Departure Airport
Arrival Airport
Navaid (VOR, NDB)
Fix

Horizontal Profiles

Position Reports

Time Latitude Longitude Heading Altitude Ground
Speed
19-Aug-20 08:32 33.661759 -115.718801 358 1711ft 0kts
19-Aug-20 08:33 33.661759 -115.718801 358 1711ft 0kts
19-Aug-20 08:34 33.661759 -115.718801 358 1711ft 0kts
19-Aug-20 08:35 33.661759 -115.718801 358 1711ft 0kts
19-Aug-20 08:36 33.661759 -115.718801 358 1711ft 0kts
19-Aug-20 08:37 33.661781 -115.718800 7 1711ft 1kts
19-Aug-20 08:38 33.661823 -115.718790 354 1711ft 0kts
19-Aug-20 08:39 33.661945 -115.719586 305 1711ft 6kts
19-Aug-20 08:40 33.663546 -115.718182 78 1714ft 14kts
19-Aug-20 08:41 33.667306 -115.697345 73 1791ft 124kts
19-Aug-20 08:42 33.690673 -115.690243 275 2359ft 137kts
19-Aug-20 08:43 33.675704 -115.729434 224 3037ft 128kts
19-Aug-20 08:44 33.684161 -115.765284 310 3564ft 131kts
19-Aug-20 08:45 33.713047 -115.789848 319 4150ft 127kts
19-Aug-20 08:46 33.738225 -115.821372 312 4701ft 133kts
19-Aug-20 08:47 33.762025 -115.855464 310 5279ft 133kts
19-Aug-20 08:48 33.785231 -115.889822 310 5835ft 132kts
19-Aug-20 08:49 33.808291 -115.924256 310 6368ft 131kts
19-Aug-20 08:50 33.831446 -115.958915 310 6917ft 134kts
19-Aug-20 08:51 33.854818 -115.993956 310 7485ft 134kts
19-Aug-20 08:52 33.878062 -116.028840 310 8030ft 133kts
19-Aug-20 08:53 33.901799 -116.064488 310 8360ft 148kts
19-Aug-20 08:54 33.929389 -116.105962 310 8357ft 160kts
19-Aug-20 08:55 33.956976 -116.147437 308 8394ft 156kts
19-Aug-20 08:56 33.983880 -116.188030 309 8429ft 154kts
19-Aug-20 08:57 34.010651 -116.228422 309 8452ft 154kts
19-Aug-20 08:58 34.037417 -116.268996 304 8462ft 155kts
19-Aug-20 08:59 34.061485 -116.312198 304 8457ft 156kts
19-Aug-20 09:00 34.085780 -116.355910 304 8441ft 157kts
19-Aug-20 09:01 34.110158 -116.399865 304 8436ft 157kts
19-Aug-20 09:02 34.134281 -116.443549 304 8449ft 156kts
19-Aug-20 09:03 34.158284 -116.487246 304 8456ft 156kts
19-Aug-20 09:04 34.185760 -116.527859 312 8456ft 156kts
19-Aug-20 09:05 34.214621 -116.567214 312 8449ft 157kts
19-Aug-20 09:06 34.243577 -116.606767 312 8432ft 157kts
19-Aug-20 09:07 34.272592 -116.646489 312 8424ft 157kts
19-Aug-20 09:08 34.301694 -116.686634 311 8449ft 155kts
19-Aug-20 09:09 34.330043 -116.726121 311 8471ft 155kts
19-Aug-20 09:10 34.358122 -116.765591 311 8487ft 154kts
19-Aug-20 09:11 34.386047 -116.805155 311 8500ft 154kts
19-Aug-20 09:12 34.408879 -116.849393 299 8505ft 155kts
19-Aug-20 09:13 34.424592 -116.898207 293 8505ft 155kts
19-Aug-20 09:14 34.441042 -116.946677 293 8506ft 155kts
19-Aug-20 09:15 34.457662 -116.995113 293 8512ft 155kts
19-Aug-20 09:16 34.474198 -117.043273 293 8523ft 154kts
19-Aug-20 09:17 34.490607 -117.091114 293 8538ft 153kts
19-Aug-20 09:18 34.506931 -117.138816 293 8556ft 152kts
19-Aug-20 09:19 34.523143 -117.186217 292 8573ft 151kts
19-Aug-20 09:20 34.539288 -117.233516 292 8586ft 151kts
19-Aug-20 09:21 34.555327 -117.280582 292 8595ft 151kts
19-Aug-20 09:22 34.571416 -117.327868 292 8596ft 151kts
19-Aug-20 09:23 34.587457 -117.375079 292 8596ft 151kts
19-Aug-20 09:24 34.603546 -117.422500 292 8596ft 151kts
19-Aug-20 09:25 34.619568 -117.469794 292 8596ft 151kts
19-Aug-20 09:26 34.635598 -117.517184 292 8596ft 151kts
19-Aug-20 09:27 34.651576 -117.564494 292 8596ft 151kts
19-Aug-20 09:28 34.667562 -117.611901 292 8594ft 151kts
19-Aug-20 09:30 34.683654 -117.659695 291 8583ft 152kts
19-Aug-20 09:31 34.699730 -117.707508 291 8569ft 153kts
19-Aug-20 09:32 34.715832 -117.755477 291 8553ft 153kts
19-Aug-20 09:33 34.731933 -117.803523 291 8537ft 153kts
19-Aug-20 09:34 34.748010 -117.851580 291 8525ft 153kts
19-Aug-20 09:35 34.764004 -117.899472 291 8531ft 152kts
19-Aug-20 09:36 34.779936 -117.947230 291 8536ft 152kts
19-Aug-20 09:37 34.795810 -117.994895 291 8539ft 152kts
19-Aug-20 09:38 34.811665 -118.042564 291 8540ft 152kts
19-Aug-20 09:39 34.819902 -118.092571 274 8541ft 151kts
19-Aug-20 09:40 34.823694 -118.143620 275 8543ft 151kts
19-Aug-20 09:41 34.827245 -118.194626 275 8544ft 151kts
19-Aug-20 09:42 34.833372 -118.245043 281 8546ft 150kts
19-Aug-20 09:43 34.840963 -118.295238 281 8548ft 150kts
19-Aug-20 09:44 34.848209 -118.345131 281 8560ft 149kts
19-Aug-20 09:45 34.855358 -118.394890 281 8591ft 148kts
19-Aug-20 09:46 34.862424 -118.444251 281 8625ft 148kts
19-Aug-20 09:46 34.868274 -118.485236 281 8655ft 148kts
19-Aug-20 09:48 34.882343 -118.540918 291 8705ft 147kts
19-Aug-20 09:48 34.894251 -118.580071 291 8724ft 149kts
19-Aug-20 09:49 34.908679 -118.627837 291 8724ft 151kts
19-Aug-20 09:51 34.925419 -118.683798 290 8725ft 152kts
19-Aug-20 09:51 34.931378 -118.725640 269 8726ft 153kts
19-Aug-20 09:52 34.930867 -118.777935 271 8725ft 154kts
19-Aug-20 09:53 34.931282 -118.830228 272 8703ft 156kts
19-Aug-20 09:54 34.931873 -118.883691 272 8652ft 158kts
19-Aug-20 09:55 34.932483 -118.937728 272 8601ft 160kts
19-Aug-20 09:56 34.933090 -118.992734 272 8454ft 167kts
19-Aug-20 09:57 34.933742 -119.053514 272 7709ft 186kts
19-Aug-20 09:58 34.934684 -119.117209 272 7020ft 189kts
19-Aug-20 09:59 34.935463 -119.181705 271 6241ft 191kts
19-Aug-20 10:00 34.936063 -119.245725 271 5560ft 186kts
19-Aug-20 10:01 34.936612 -119.307975 271 4962ft 180kts
19-Aug-20 10:02 34.937095 -119.366691 271 4746ft 162kts
19-Aug-20 10:03 34.937515 -119.420167 271 4544ft 160kts
19-Aug-20 10:04 34.932668 -119.476484 258 3970ft 174kts
19-Aug-20 10:05 34.921514 -119.536594 255 3148ft 185kts
19-Aug-20 10:06 34.913503 -119.591597 290 2844ft 151kts
19-Aug-20 10:07 34.924082 -119.631737 281 3029ft 105kts
19-Aug-20 10:08 34.930585 -119.663510 291 2522ft 85kts
19-Aug-20 10:09 34.940463 -119.686826 294 2175ft 50kts
19-Aug-20 10:10 34.943650 -119.691000 175 2158ft 5kts
19-Aug-20 10:11 34.943627 -119.690998 166 2158ft 0kts
19-Aug-20 10:12 34.943627 -119.690998 166 2158ft 0kts
19-Aug-20 10:13 34.943627 -119.690998 166 2158ft 0kts
19-Aug-20 10:14 34.943627 -119.690998 166 2158ft 0kts
19-Aug-20 10:15 34.943627 -119.690998 166 2158ft 0kts
19-Aug-20 10:16 34.943627 -119.690998 166 2158ft 0kts
19-Aug-20 10:17 34.943627 -119.690998 166 2158ft 0kts
19-Aug-20 10:18 34.943627 -119.690998 166 2158ft 0kts
19-Aug-20 10:19 34.943627 -119.690998 166 2158ft 0kts
19-Aug-20 10:20 34.943627 -119.690998 166 2158ft 0kts
19-Aug-20 10:21 34.943627 -119.690998 166 2158ft 0kts
19-Aug-20 10:22 34.943627 -119.690998 166 2158ft 0kts
19-Aug-20 10:23 34.943627 -119.690998 166 2158ft 0kts
19-Aug-20 10:24 34.943627 -119.690998 166 2158ft 0kts

Navigation Log

Ident Type
Flight plan parsing failed, navigation log unavailable